Arapahoe, Nebraska
Current Conditions -  °F | °C
As of 11:15 AM on Friday 31 Oct 2014 (Local Time) from KHDE Reporting Station
Clear Clear  
Wind Chill:   Ceiling: Unl
Heat Index:   Visibility: 10mi
Dew Point: -7°   Wind: 0mph
Humidity: 58%   Direction: NA
Pressure: 30.56"   Gusts: NA
Location:  40.3°N, 99.9°W
Report Text: KHDE 311615Z AUTO 00000KT 10SM CLR 00/M07 A3056 RMK AO2 T00001073
Loading
Personal Weather Stations






























Interactive Weather Map
Tropical Storm Tracking
New forecast layout! Learn more

10-Day Weather Forecast

Advertisements
Track Severe Weather on mobile